sensor_id;sensor_type;location;lat;lon;timestamp;temperature;humidity
22917;DHT22;11624;53.250;7.456;2024-03-07T00:00:20;11.67;48.38
22917;DHT22;11624;53.250;7.456;2024-03-07T00:02:50;11.68;48.43
22917;DHT22;11624;53.250;7.456;2024-03-07T00:05:21;11.69;48.30
22917;DHT22;11624;53.250;7.456;2024-03-07T00:07:52;11.68;48.41
22917;DHT22;11624;53.250;7.456;2024-03-07T00:10:21;11.68;48.36
22917;DHT22;11624;53.250;7.456;2024-03-07T00:12:50;11.67;48.39
22917;DHT22;11624;53.250;7.456;2024-03-07T00:15:19;11.68;48.35
22917;DHT22;11624;53.250;7.456;2024-03-07T00:17:48;11.69;48.34
22917;DHT22;11624;53.250;7.456;2024-03-07T00:20:17;11.68;48.27
22917;DHT22;11624;53.250;7.456;2024-03-07T00:22:48;11.69;48.04
22917;DHT22;11624;53.250;7.456;2024-03-07T00:25:17;11.66;48.05
22917;DHT22;11624;53.250;7.456;2024-03-07T00:27:47;11.61;48.04
22917;DHT22;11624;53.250;7.456;2024-03-07T00:30:19;11.53;48.10
22917;DHT22;11624;53.250;7.456;2024-03-07T00:32:47;11.51;48.16
22917;DHT22;11624;53.250;7.456;2024-03-07T00:35:16;11.43;48.22
22917;DHT22;11624;53.250;7.456;2024-03-07T00:37:47;11.36;48.31
22917;DHT22;11624;53.250;7.456;2024-03-07T00:40:16;11.29;48.37
22917;DHT22;11624;53.250;7.456;2024-03-07T00:42:44;11.27;48.39
22917;DHT22;11624;53.250;7.456;2024-03-07T00:45:13;11.24;48.32
22917;DHT22;11624;53.250;7.456;2024-03-07T00:47:41;11.15;48.32
22917;DHT22;11624;53.250;7.456;2024-03-07T00:50:10;11.04;48.43
22917;DHT22;11624;53.250;7.456;2024-03-07T00:52:38;11.00;48.44
22917;DHT22;11624;53.250;7.456;2024-03-07T00:55:09;10.98;48.31
22917;DHT22;11624;53.250;7.456;2024-03-07T00:57:37;10.92;48.37
22917;DHT22;11624;53.250;7.456;2024-03-07T01:00:07;10.85;48.41
22917;DHT22;11624;53.250;7.456;2024-03-07T01:02:41;10.79;48.41
22917;DHT22;11624;53.250;7.456;2024-03-07T01:05:11;10.72;48.45
22917;DHT22;11624;53.250;7.456;2024-03-07T01:07:41;10.62;48.50
22917;DHT22;11624;53.250;7.456;2024-03-07T01:10:13;10.50;48.71
22917;DHT22;11624;53.250;7.456;2024-03-07T01:12:42;10.44;48.82
22917;DHT22;11624;53.250;7.456;2024-03-07T01:15:11;10.39;48.86
22917;DHT22;11624;53.250;7.456;2024-03-07T01:17:42;10.34;48.95
22917;DHT22;11624;53.250;7.456;2024-03-07T01:20:12;10.28;49.06
22917;DHT22;11624;53.250;7.456;2024-03-07T01:22:40;10.24;49.27
22917;DHT22;11624;53.250;7.456;2024-03-07T01:25:09;10.16;49.40
22917;DHT22;11624;53.250;7.456;2024-03-07T01:27:40;10.15;49.48
22917;DHT22;11624;53.250;7.456;2024-03-07T01:30:10;10.15;49.53
22917;DHT22;11624;53.250;7.456;2024-03-07T01:32:38;10.14;49.55
22917;DHT22;11624;53.250;7.456;2024-03-07T01:35:07;10.13;49.68
22917;DHT22;11624;53.250;7.456;2024-03-07T01:37:36;10.16;49.76
22917;DHT22;11624;53.250;7.456;2024-03-07T01:40:06;10.15;49.88
22917;DHT22;11624;53.250;7.456;2024-03-07T01:42:35;10.20;49.87
22917;DHT22;11624;53.250;7.456;2024-03-07T01:45:06;10.19;49.85
22917;DHT22;11624;53.250;7.456;2024-03-07T01:47:35;10.19;49.95
22917;DHT22;11624;53.250;7.456;2024-03-07T01:50:06;10.12;50.20
22917;DHT22;11624;53.250;7.456;2024-03-07T01:52:35;10.06;50.39
22917;DHT22;11624;53.250;7.456;2024-03-07T01:55:07;10.08;50.40
22917;DHT22;11624;53.250;7.456;2024-03-07T01:57:41;10.07;50.44
22917;DHT22;11624;53.250;7.456;2024-03-07T02:00:12;10.04;50.30
22917;DHT22;11624;53.250;7.456;2024-03-07T02:02:40;10.00;50.44
22917;DHT22;11624;53.250;7.456;2024-03-07T02:05:09;9.98;50.36
22917;DHT22;11624;53.250;7.456;2024-03-07T02:07:38;9.96;50.32
22917;DHT22;11624;53.250;7.456;2024-03-07T02:10:07;9.95;50.40
22917;DHT22;11624;53.250;7.456;2024-03-07T02:12:36;9.88;50.43
22917;DHT22;11624;53.250;7.456;2024-03-07T02:15:05;9.85;50.46
22917;DHT22;11624;53.250;7.456;2024-03-07T02:17:36;9.82;50.40
22917;DHT22;11624;53.250;7.456;2024-03-07T02:20:06;9.80;50.48
22917;DHT22;11624;53.250;7.456;2024-03-07T02:22:36;9.75;50.45
22917;DHT22;11624;53.250;7.456;2024-03-07T02:25:05;9.71;50.49
22917;DHT22;11624;53.250;7.456;2024-03-07T02:27:34;9.68;50.42
22917;DHT22;11624;53.250;7.456;2024-03-07T02:30:02;9.63;50.40
22917;DHT22;11624;53.250;7.456;2024-03-07T02:32:32;9.57;50.41
22917;DHT22;11624;53.250;7.456;2024-03-07T02:35:01;9.52;50.44
22917;DHT22;11624;53.250;7.456;2024-03-07T02:37:30;9.48;50.41
22917;DHT22;11624;53.250;7.456;2024-03-07T02:40:00;9.42;50.38
22917;DHT22;11624;53.250;7.456;2024-03-07T02:42:29;9.35;50.43
22917;DHT22;11624;53.250;7.456;2024-03-07T02:44:57;9.29;50.49
22917;DHT22;11624;53.250;7.456;2024-03-07T02:47:26;9.23;50.61
22917;DHT22;11624;53.250;7.456;2024-03-07T02:49:56;9.16;50.63
22917;DHT22;11624;53.250;7.456;2024-03-07T02:52:24;9.11;50.66
22917;DHT22;11624;53.250;7.456;2024-03-07T02:54:53;9.08;50.70
22917;DHT22;11624;53.250;7.456;2024-03-07T02:57:23;9.04;50.69
22917;DHT22;11624;53.250;7.456;2024-03-07T02:59:51;9.01;50.73
22917;DHT22;11624;53.250;7.456;2024-03-07T03:02:20;9.00;50.75
22917;DHT22;11624;53.250;7.456;2024-03-07T03:04:48;8.94;50.79
22917;DHT22;11624;53.250;7.456;2024-03-07T03:07:17;8.91;50.82
22917;DHT22;11624;53.250;7.456;2024-03-07T03:09:45;8.88;50.82
22917;DHT22;11624;53.250;7.456;2024-03-07T03:12:14;8.82;50.79
22917;DHT22;11624;53.250;7.456;2024-03-07T03:14:44;8.77;50.75
22917;DHT22;11624;53.250;7.456;2024-03-07T03:17:13;8.74;50.80
22917;DHT22;11624;53.250;7.456;2024-03-07T03:19:41;8.70;50.84
22917;DHT22;11624;53.250;7.456;2024-03-07T03:22:10;8.67;50.85
22917;DHT22;11624;53.250;7.456;2024-03-07T03:24:38;8.64;50.85
22917;DHT22;11624;53.250;7.456;2024-03-07T03:27:08;8.60;50.91
22917;DHT22;11624;53.250;7.456;2024-03-07T03:29:36;8.56;50.94
22917;DHT22;11624;53.250;7.456;2024-03-07T03:32:07;8.50;50.91
22917;DHT22;11624;53.250;7.456;2024-03-07T03:34:35;8.48;50.94
22917;DHT22;11624;53.250;7.456;2024-03-07T03:37:04;8.42;51.02
22917;DHT22;11624;53.250;7.456;2024-03-07T03:39:32;8.34;51.19
22917;DHT22;11624;53.250;7.456;2024-03-07T03:42:01;8.29;51.40
22917;DHT22;11624;53.250;7.456;2024-03-07T03:44:29;8.26;51.45
22917;DHT22;11624;53.250;7.456;2024-03-07T03:46:57;8.24;51.50
22917;DHT22;11624;53.250;7.456;2024-03-07T03:49:27;8.22;51.53
22917;DHT22;11624;53.250;7.456;2024-03-07T03:51:56;8.21;51.59
22917;DHT22;11624;53.250;7.456;2024-03-07T03:54:25;8.19;51.63
22917;DHT22;11624;53.250;7.456;2024-03-07T03:56:55;8.13;51.71
22917;DHT22;11624;53.250;7.456;2024-03-07T03:59:26;8.11;51.69
22917;DHT22;11624;53.250;7.456;2024-03-07T04:01:54;8.05;51.80
22917;DHT22;11624;53.250;7.456;2024-03-07T04:04:23;8.02;51.86
22917;DHT22;11624;53.250;7.456;2024-03-07T04:06:54;8.02;51.85
22917;DHT22;11624;53.250;7.456;2024-03-07T04:09:22;7.99;51.88
22917;DHT22;11624;53.250;7.456;2024-03-07T04:11:55;7.97;51.98
22917;DHT22;11624;53.250;7.456;2024-03-07T04:14:24;7.99;52.24
22917;DHT22;11624;53.250;7.456;2024-03-07T04:16:53;7.98;52.36
22917;DHT22;11624;53.250;7.456;2024-03-07T04:19:24;7.98;52.51
22917;DHT22;11624;53.250;7.456;2024-03-07T04:21:53;7.97;52.60
22917;DHT22;11624;53.250;7.456;2024-03-07T04:24:22;7.91;53.06
22917;DHT22;11624;53.250;7.456;2024-03-07T04:26:50;7.92;53.11
22917;DHT22;11624;53.250;7.456;2024-03-07T04:29:20;7.96;53.20
22917;DHT22;11624;53.250;7.456;2024-03-07T04:31:48;7.97;53.46
22917;DHT22;11624;53.250;7.456;2024-03-07T04:34:16;7.98;53.68
22917;DHT22;11624;53.250;7.456;2024-03-07T04:36:45;7.96;53.81
22917;DHT22;11624;53.250;7.456;2024-03-07T04:39:15;8.00;53.81
22917;DHT22;11624;53.250;7.456;2024-03-07T04:41:55;8.05;53.75
22917;DHT22;11624;53.250;7.456;2024-03-07T04:44:24;8.09;53.79
22917;DHT22;11624;53.250;7.456;2024-03-07T04:46:52;8.09;53.97
22917;DHT22;11624;53.250;7.456;2024-03-07T04:49:22;8.12;54.36
22917;DHT22;11624;53.250;7.456;2024-03-07T04:51:52;8.17;54.78
22917;DHT22;11624;53.250;7.456;2024-03-07T04:54:22;8.18;55.07
22917;DHT22;11624;53.250;7.456;2024-03-07T04:56:52;8.20;55.47
22917;DHT22;11624;53.250;7.456;2024-03-07T04:59:21;8.24;55.78
22917;DHT22;11624;53.250;7.456;2024-03-07T05:01:50;8.31;55.78
22917;DHT22;11624;53.250;7.456;2024-03-07T05:04:18;8.34;55.87
22917;DHT22;11624;53.250;7.456;2024-03-07T05:06:47;8.38;56.02
22917;DHT22;11624;53.250;7.456;2024-03-07T05:09:15;8.46;55.99
22917;DHT22;11624;53.250;7.456;2024-03-07T05:11:54;8.48;55.98
22917;DHT22;11624;53.250;7.456;2024-03-07T05:14:23;8.56;56.08
22917;DHT22;11624;53.250;7.456;2024-03-07T05:16:53;8.59;56.18
22917;DHT22;11624;53.250;7.456;2024-03-07T05:19:33;8.57;56.30
22917;DHT22;11624;53.250;7.456;2024-03-07T05:22:01;8.57;56.46
22917;DHT22;11624;53.250;7.456;2024-03-07T05:24:32;8.57;56.51
22917;DHT22;11624;53.250;7.456;2024-03-07T05:27:02;8.55;56.52
22917;DHT22;11624;53.250;7.456;2024-03-07T05:29:31;8.57;56.59
22917;DHT22;11624;53.250;7.456;2024-03-07T05:32:20;8.61;55.97
22917;DHT22;11624;53.250;7.456;2024-03-07T05:34:49;8.67;56.50
22917;DHT22;11624;53.250;7.456;2024-03-07T05:37:17;8.66;56.48
22917;DHT22;11624;53.250;7.456;2024-03-07T05:39:47;8.60;56.61
22917;DHT22;11624;53.250;7.456;2024-03-07T05:42:17;8.58;56.71
22917;DHT22;11624;53.250;7.456;2024-03-07T05:44:45;8.59;56.60
22917;DHT22;11624;53.250;7.456;2024-03-07T05:47:14;8.58;56.69
22917;DHT22;11624;53.250;7.456;2024-03-07T05:49:44;8.62;56.59
22917;DHT22;11624;53.250;7.456;2024-03-07T05:52:12;8.59;56.64
22917;DHT22;11624;53.250;7.456;2024-03-07T05:54:41;8.52;56.81
22917;DHT22;11624;53.250;7.456;2024-03-07T05:57:11;8.56;56.87
22917;DHT22;11624;53.250;7.456;2024-03-07T05:59:41;8.57;56.78
22917;DHT22;11624;53.250;7.456;2024-03-07T06:02:10;8.61;56.90
22917;DHT22;11624;53.250;7.456;2024-03-07T06:04:42;8.58;56.98
22917;DHT22;11624;53.250;7.456;2024-03-07T06:07:11;8.62;56.94
22917;DHT22;11624;53.250;7.456;2024-03-07T06:09:39;8.73;56.82
22917;DHT22;11624;53.250;7.456;2024-03-07T06:12:08;8.72;56.82
22917;DHT22;11624;53.250;7.456;2024-03-07T06:14:50;8.63;56.95
22917;DHT22;11624;53.250;7.456;2024-03-07T06:17:19;8.61;57.13
22917;DHT22;11624;53.250;7.456;2024-03-07T06:19:50;8.66;57.11
22917;DHT22;11624;53.250;7.456;2024-03-07T06:22:19;8.74;56.97
22917;DHT22;11624;53.250;7.456;2024-03-07T06:24:47;8.66;57.06
22917;DHT22;11624;53.250;7.456;2024-03-07T06:27:16;8.70;57.00
22917;DHT22;11624;53.250;7.456;2024-03-07T06:29:56;8.66;57.18
22917;DHT22;11624;53.250;7.456;2024-03-07T06:32:24;8.73;57.09
22917;DHT22;11624;53.250;7.456;2024-03-07T06:34:53;8.67;57.21
22917;DHT22;11624;53.250;7.456;2024-03-07T06:37:22;8.70;57.26
22917;DHT22;11624;53.250;7.456;2024-03-07T06:39:50;8.68;57.40
22917;DHT22;11624;53.250;7.456;2024-03-07T06:42:19;8.75;57.30
22917;DHT22;11624;53.250;7.456;2024-03-07T06:44:48;8.74;57.39
22917;DHT22;11624;53.250;7.456;2024-03-07T06:47:18;8.70;57.53
22917;DHT22;11624;53.250;7.456;2024-03-07T06:49:47;8.73;57.77
22917;DHT22;11624;53.250;7.456;2024-03-07T06:52:15;8.77;57.67
22917;DHT22;11624;53.250;7.456;2024-03-07T06:54:45;8.81;57.78
22917;DHT22;11624;53.250;7.456;2024-03-07T06:57:13;8.90;57.59
22917;DHT22;11624;53.250;7.456;2024-03-07T06:59:45;8.95;57.58
22917;DHT22;11624;53.250;7.456;2024-03-07T07:02:13;8.97;57.51
22917;DHT22;11624;53.250;7.456;2024-03-07T07:04:43;9.02;57.60
22917;DHT22;11624;53.250;7.456;2024-03-07T07:07:14;9.05;57.61
22917;DHT22;11624;53.250;7.456;2024-03-07T07:09:43;9.07;57.74
22917;DHT22;11624;53.250;7.456;2024-03-07T07:12:12;9.15;57.62
22917;DHT22;11624;53.250;7.456;2024-03-07T07:14:41;9.11;57.63
22917;DHT22;11624;53.250;7.456;2024-03-07T07:17:10;9.16;57.74
22917;DHT22;11624;53.250;7.456;2024-03-07T07:19:40;9.26;57.61
22917;DHT22;11624;53.250;7.456;2024-03-07T07:22:10;9.29;57.57
22917;DHT22;11624;53.250;7.456;2024-03-07T07:24:39;9.32;57.55
22917;DHT22;11624;53.250;7.456;2024-03-07T07:27:07;9.35;57.38
22917;DHT22;11624;53.250;7.456;2024-03-07T07:29:36;9.38;57.42
22917;DHT22;11624;53.250;7.456;2024-03-07T07:32:05;9.39;57.56
22917;DHT22;11624;53.250;7.456;2024-03-07T07:34:34;9.46;57.52
22917;DHT22;11624;53.250;7.456;2024-03-07T07:37:02;9.54;57.46
22917;DHT22;11624;53.250;7.456;2024-03-07T07:39:32;9.63;57.27
22917;DHT22;11624;53.250;7.456;2024-03-07T07:42:01;9.71;57.24
22917;DHT22;11624;53.250;7.456;2024-03-07T07:44:29;9.77;57.02
22917;DHT22;11624;53.250;7.456;2024-03-07T07:46:58;9.77;56.86
22917;DHT22;11624;53.250;7.456;2024-03-07T07:49:26;9.72;56.80
22917;DHT22;11624;53.250;7.456;2024-03-07T07:51:55;9.78;56.52
22917;DHT22;11624;53.250;7.456;2024-03-07T07:54:23;9.80;56.59
22917;DHT22;11624;53.250;7.456;2024-03-07T07:56:53;9.77;56.68
22917;DHT22;11624;53.250;7.456;2024-03-07T07:59:22;9.71;56.84
22917;DHT22;11624;53.250;7.456;2024-03-07T08:01:50;9.70;56.66
22917;DHT22;11624;53.250;7.456;2024-03-07T08:04:22;9.72;56.73
22917;DHT22;11624;53.250;7.456;2024-03-07T08:06:51;9.78;56.64
22917;DHT22;11624;53.250;7.456;2024-03-07T08:09:19;9.88;56.32
22917;DHT22;11624;53.250;7.456;2024-03-07T08:11:48;9.93;56.16
22917;DHT22;11624;53.250;7.456;2024-03-07T08:14:18;9.92;55.96
22917;DHT22;11624;53.250;7.456;2024-03-07T08:16:48;9.92;56.29
22917;DHT22;11624;53.250;7.456;2024-03-07T08:19:18;9.91;56.34
22917;DHT22;11624;53.250;7.456;2024-03-07T08:21:47;9.86;56.32
22917;DHT22;11624;53.250;7.456;2024-03-07T08:24:15;9.94;56.29
22917;DHT22;11624;53.250;7.456;2024-03-07T08:26:44;9.97;56.16
22917;DHT22;11624;53.250;7.456;2024-03-07T08:29:13;10.04;56.15
22917;DHT22;11624;53.250;7.456;2024-03-07T08:31:45;10.03;56.16
22917;DHT22;11624;53.250;7.456;2024-03-07T08:34:13;10.08;56.06
22917;DHT22;11624;53.250;7.456;2024-03-07T08:36:41;10.01;55.77
22917;DHT22;11624;53.250;7.456;2024-03-07T08:39:10;10.05;55.83
22917;DHT22;11624;53.250;7.456;2024-03-07T08:41:40;10.09;55.83
22917;DHT22;11624;53.250;7.456;2024-03-07T08:44:12;10.14;55.84
22917;DHT22;11624;53.250;7.456;2024-03-07T08:46:41;10.19;55.79
22917;DHT22;11624;53.250;7.456;2024-03-07T08:49:12;10.18;55.55
22917;DHT22;11624;53.250;7.456;2024-03-07T08:51:44;10.10;55.70
22917;DHT22;11624;53.250;7.456;2024-03-07T08:54:12;10.13;55.45
22917;DHT22;11624;53.250;7.456;2024-03-07T08:56:40;10.14;55.71
22917;DHT22;11624;53.250;7.456;2024-03-07T08:59:09;10.10;55.53
22917;DHT22;11624;53.250;7.456;2024-03-07T09:01:42;10.20;55.26
22917;DHT22;11624;53.250;7.456;2024-03-07T09:04:13;10.24;55.16
22917;DHT22;11624;53.250;7.456;2024-03-07T09:06:42;10.24;55.16
22917;DHT22;11624;53.250;7.456;2024-03-07T09:09:12;10.25;55.26
22917;DHT22;11624;53.250;7.456;2024-03-07T09:11:44;10.25;55.32
22917;DHT22;11624;53.250;7.456;2024-03-07T09:14:12;10.29;55.30
22917;DHT22;11624;53.250;7.456;2024-03-07T09:16:41;10.31;55.38
22917;DHT22;11624;53.250;7.456;2024-03-07T09:19:10;10.38;55.13
22917;DHT22;11624;53.250;7.456;2024-03-07T09:21:42;10.38;55.27
22917;DHT22;11624;53.250;7.456;2024-03-07T09:24:10;10.30;55.32
22917;DHT22;11624;53.250;7.456;2024-03-07T09:26:39;10.26;55.29
22917;DHT22;11624;53.250;7.456;2024-03-07T09:29:07;10.31;55.26
22917;DHT22;11624;53.250;7.456;2024-03-07T09:31:37;10.37;55.40
22917;DHT22;11624;53.250;7.456;2024-03-07T09:34:07;10.45;55.16
22917;DHT22;11624;53.250;7.456;2024-03-07T09:36:36;10.54;54.99
22917;DHT22;11624;53.250;7.456;2024-03-07T09:39:05;10.71;54.87
22917;DHT22;11624;53.250;7.456;2024-03-07T09:41:35;10.75;54.85
22917;DHT22;11624;53.250;7.456;2024-03-07T09:44:05;10.87;54.75
22917;DHT22;11624;53.250;7.456;2024-03-07T09:46:34;11.00;54.28
22917;DHT22;11624;53.250;7.456;2024-03-07T09:49:04;10.92;54.33
22917;DHT22;11624;53.250;7.456;2024-03-07T09:51:33;11.02;54.46
22917;DHT22;11624;53.250;7.456;2024-03-07T09:54:03;11.11;54.45
22917;DHT22;11624;53.250;7.456;2024-03-07T09:56:34;11.16;54.24
22917;DHT22;11624;53.250;7.456;2024-03-07T09:59:04;11.30;54.14
22917;DHT22;11624;53.250;7.456;2024-03-07T10:01:34;11.40;53.99
22917;DHT22;11624;53.250;7.456;2024-03-07T10:04:05;11.53;53.89
22917;DHT22;11624;53.250;7.456;2024-03-07T10:06:38;11.63;53.40
22917;DHT22;11624;53.250;7.456;2024-03-07T10:09:07;11.69;53.17
22917;DHT22;11624;53.250;7.456;2024-03-07T10:11:37;11.72;53.07
22917;DHT22;11624;53.250;7.456;2024-03-07T10:14:05;11.81;52.84
22917;DHT22;11624;53.250;7.456;2024-03-07T10:16:34;11.84;52.65
22917;DHT22;11624;53.250;7.456;2024-03-07T10:19:04;11.90;52.71
22917;DHT22;11624;53.250;7.456;2024-03-07T10:21:33;11.89;53.09
22917;DHT22;11624;53.250;7.456;2024-03-07T10:24:07;12.08;52.24
22917;DHT22;11624;53.250;7.456;2024-03-07T10:26:38;12.21;52.50
22917;DHT22;11624;53.250;7.456;2024-03-07T10:29:07;12.42;52.47
22917;DHT22;11624;53.250;7.456;2024-03-07T10:31:36;12.50;52.11
22917;DHT22;11624;53.250;7.456;2024-03-07T10:34:15;12.58;52.11
22917;DHT22;11624;53.250;7.456;2024-03-07T10:36:44;12.63;51.29
22917;DHT22;11624;53.250;7.456;2024-03-07T10:39:12;12.70;51.68
22917;DHT22;11624;53.250;7.456;2024-03-07T10:41:47;12.92;51.69
22917;DHT22;11624;53.250;7.456;2024-03-07T10:44:19;13.16;50.20
22917;DHT22;11624;53.250;7.456;2024-03-07T10:46:52;13.25;50.01
22917;DHT22;11624;53.250;7.456;2024-03-07T10:49:21;13.33;50.34
22917;DHT22;11624;53.250;7.456;2024-03-07T10:52:00;13.41;49.69
22917;DHT22;11624;53.250;7.456;2024-03-07T10:54:36;13.65;48.84
22917;DHT22;11624;53.250;7.456;2024-03-07T10:57:28;13.73;48.38
22917;DHT22;11624;53.250;7.456;2024-03-07T11:00:03;13.90;49.05
22917;DHT22;11624;53.250;7.456;2024-03-07T11:02:51;14.43;47.70
22917;DHT22;11624;53.250;7.456;2024-03-07T11:05:25;14.86;45.96
22917;DHT22;11624;53.250;7.456;2024-03-07T11:07:58;15.41;48.69
22917;DHT22;11624;53.250;7.456;2024-03-07T11:10:32;16.42;47.59
22917;DHT22;11624;53.250;7.456;2024-03-07T11:13:03;16.93;41.44
22917;DHT22;11624;53.250;7.456;2024-03-07T11:15:33;16.90;41.18
22917;DHT22;11624;53.250;7.456;2024-03-07T11:18:02;16.69;39.89
22917;DHT22;11624;53.250;7.456;2024-03-07T11:20:34;16.43;40.89
22917;DHT22;11624;53.250;7.456;2024-03-07T11:23:25;16.39;41.55
22917;DHT22;11624;53.250;7.456;2024-03-07T11:26:02;16.85;41.25
22917;DHT22;11624;53.250;7.456;2024-03-07T11:28:37;17.40;42.63
22917;DHT22;11624;53.250;7.456;2024-03-07T11:31:12;18.15;39.68
22917;DHT22;11624;53.250;7.456;2024-03-07T11:33:41;18.70;39.46
22917;DHT22;11624;53.250;7.456;2024-03-07T11:36:11;19.48;36.42
22917;DHT22;11624;53.250;7.456;2024-03-07T11:38:44;19.77;35.42
22917;DHT22;11624;53.250;7.456;2024-03-07T11:41:14;19.68;35.63
22917;DHT22;11624;53.250;7.456;2024-03-07T11:43:44;20.03;34.17
22917;DHT22;11624;53.250;7.456;2024-03-07T11:46:12;19.91;34.13
22917;DHT22;11624;53.250;7.456;2024-03-07T11:48:44;19.54;33.53
22917;DHT22;11624;53.250;7.456;2024-03-07T11:51:18;18.77;34.34
22917;DHT22;11624;53.250;7.456;2024-03-07T11:53:48;18.19;36.19
22917;DHT22;11624;53.250;7.456;2024-03-07T11:56:18;17.82;36.91
22917;DHT22;11624;53.250;7.456;2024-03-07T11:58:49;17.45;37.43
22917;DHT22;11624;53.250;7.456;2024-03-07T12:01:22;17.17;38.08
22917;DHT22;11624;53.250;7.456;2024-03-07T12:03:52;16.89;38.73
22917;DHT22;11624;53.250;7.456;2024-03-07T12:06:23;16.71;39.09
22917;DHT22;11624;53.250;7.456;2024-03-07T12:08:53;16.46;39.59
22917;DHT22;11624;53.250;7.456;2024-03-07T12:11:23;16.20;40.13
22917;DHT22;11624;53.250;7.456;2024-03-07T12:13:54;16.12;40.64
22917;DHT22;11624;53.250;7.456;2024-03-07T12:16:23;16.04;41.30
22917;DHT22;11624;53.250;7.456;2024-03-07T12:18:56;16.25;42.19
22917;DHT22;11624;53.250;7.456;2024-03-07T12:21:25;16.80;41.72
22917;DHT22;11624;53.250;7.456;2024-03-07T12:23:54;17.24;40.84
22917;DHT22;11624;53.250;7.456;2024-03-07T12:26:23;17.49;39.43
22917;DHT22;11624;53.250;7.456;2024-03-07T12:28:54;17.46;38.76
22917;DHT22;11624;53.250;7.456;2024-03-07T12:31:22;17.20;38.95
22917;DHT22;11624;53.250;7.456;2024-03-07T12:33:52;16.98;39.39
22917;DHT22;11624;53.250;7.456;2024-03-07T12:36:21;16.82;39.85
22917;DHT22;11624;53.250;7.456;2024-03-07T12:38:54;16.78;40.01
22917;DHT22;11624;53.250;7.456;2024-03-07T12:41:23;16.71;40.23
22917;DHT22;11624;53.250;7.456;2024-03-07T12:43:53;16.67;40.15
22917;DHT22;11624;53.250;7.456;2024-03-07T12:46:22;16.81;40.76
22917;DHT22;11624;53.250;7.456;2024-03-07T12:48:50;16.88;39.94
22917;DHT22;11624;53.250;7.456;2024-03-07T12:51:19;16.84;39.65
22917;DHT22;11624;53.250;7.456;2024-03-07T12:53:51;16.66;39.72
22917;DHT22;11624;53.250;7.456;2024-03-07T12:56:20;16.41;40.26
22917;DHT22;11624;53.250;7.456;2024-03-07T12:58:48;16.22;40.61
22917;DHT22;11624;53.250;7.456;2024-03-07T13:01:19;16.22;41.09
22917;DHT22;11624;53.250;7.456;2024-03-07T13:03:48;16.18;40.91
22917;DHT22;11624;53.250;7.456;2024-03-07T13:06:17;16.03;41.27
22917;DHT22;11624;53.250;7.456;2024-03-07T13:08:53;15.93;41.63
22917;DHT22;11624;53.250;7.456;2024-03-07T13:11:23;16.13;41.88
22917;DHT22;11624;53.250;7.456;2024-03-07T13:13:54;16.46;41.18
22917;DHT22;11624;53.250;7.456;2024-03-07T13:16:24;16.64;40.59
22917;DHT22;11624;53.250;7.456;2024-03-07T13:18:58;16.67;40.44
22917;DHT22;11624;53.250;7.456;2024-03-07T13:21:27;16.85;40.33
22917;DHT22;11624;53.250;7.456;2024-03-07T13:23:57;16.91;39.68
22917;DHT22;11624;53.250;7.456;2024-03-07T13:26:28;16.81;39.42
22917;DHT22;11624;53.250;7.456;2024-03-07T13:28:59;16.46;39.86
22917;DHT22;11624;53.250;7.456;2024-03-07T13:31:30;16.18;40.26
22917;DHT22;11624;53.250;7.456;2024-03-07T13:34:00;16.13;40.62
22917;DHT22;11624;53.250;7.456;2024-03-07T13:36:29;16.04;41.01
22917;DHT22;11624;53.250;7.456;2024-03-07T13:38:58;15.95;40.92
22917;DHT22;11624;53.250;7.456;2024-03-07T13:41:26;15.92;40.99
22917;DHT22;11624;53.250;7.456;2024-03-07T13:43:56;15.96;41.42
22917;DHT22;11624;53.250;7.456;2024-03-07T13:46:27;16.10;41.46
22917;DHT22;11624;53.250;7.456;2024-03-07T13:48:57;16.29;40.86
22917;DHT22;11624;53.250;7.456;2024-03-07T13:51:34;16.44;40.13
22917;DHT22;11624;53.250;7.456;2024-03-07T13:54:04;16.41;39.65
22917;DHT22;11624;53.250;7.456;2024-03-07T13:57:02;16.03;39.75
22917;DHT22;11624;53.250;7.456;2024-03-07T14:00:05;15.85;40.20
22917;DHT22;11624;53.250;7.456;2024-03-07T14:06:05;15.84;40.52
22917;DHT22;11624;53.250;7.456;2024-03-07T14:18:51;15.81;40.57
22917;DHT22;11624;53.250;7.456;2024-03-07T14:24:58;16.43;39.56
22917;DHT22;11624;53.250;7.456;2024-03-07T14:27:34;17.10;39.50
22917;DHT22;11624;53.250;7.456;2024-03-07T14:30:18;17.33;37.81
22917;DHT22;11624;53.250;7.456;2024-03-07T14:32:50;17.74;37.34
22917;DHT22;11624;53.250;7.456;2024-03-07T14:35:24;17.68;36.37
22917;DHT22;11624;53.250;7.456;2024-03-07T14:38:06;17.34;36.91
22917;DHT22;11624;53.250;7.456;2024-03-07T14:40:51;17.38;38.06
22917;DHT22;11624;53.250;7.456;2024-03-07T14:43:20;17.90;37.70
22917;DHT22;11624;53.250;7.456;2024-03-07T14:45:49;17.77;36.99
22917;DHT22;11624;53.250;7.456;2024-03-07T14:48:18;17.51;37.08
22917;DHT22;11624;53.250;7.456;2024-03-07T14:50:47;17.65;36.91
22917;DHT22;11624;53.250;7.456;2024-03-07T14:53:17;17.79;36.69
22917;DHT22;11624;53.250;7.456;2024-03-07T14:55:47;17.78;35.92
22917;DHT22;11624;53.250;7.456;2024-03-07T14:58:15;17.54;35.79
22917;DHT22;11624;53.250;7.456;2024-03-07T15:00:46;17.04;36.37
22917;DHT22;11624;53.250;7.456;2024-03-07T15:03:25;16.67;37.43
22917;DHT22;11624;53.250;7.456;2024-03-07T15:05:56;16.27;38.48
22917;DHT22;11624;53.250;7.456;2024-03-07T15:08:27;16.11;39.10
22917;DHT22;11624;53.250;7.456;2024-03-07T15:10:59;15.80;39.71
22917;DHT22;11624;53.250;7.456;2024-03-07T15:13:36;15.47;40.46
22917;DHT22;11624;53.250;7.456;2024-03-07T15:16:05;15.45;40.79
22917;DHT22;11624;53.250;7.456;2024-03-07T15:18:44;15.36;40.68
22917;DHT22;11624;53.250;7.456;2024-03-07T15:21:12;15.27;40.83
22917;DHT22;11624;53.250;7.456;2024-03-07T15:23:47;15.26;41.08
22917;DHT22;11624;53.250;7.456;2024-03-07T15:26:15;15.21;41.21
22917;DHT22;11624;53.250;7.456;2024-03-07T15:28:45;15.14;41.49
22917;DHT22;11624;53.250;7.456;2024-03-07T15:31:13;15.16;41.53
22917;DHT22;11624;53.250;7.456;2024-03-07T15:33:46;15.10;41.60
22917;DHT22;11624;53.250;7.456;2024-03-07T15:36:16;14.89;42.01
22917;DHT22;11624;53.250;7.456;2024-03-07T15:38:46;14.95;42.37
22917;DHT22;11624;53.250;7.456;2024-03-07T15:41:15;14.97;42.18
22917;DHT22;11624;53.250;7.456;2024-03-07T15:43:43;14.86;42.19
22917;DHT22;11624;53.250;7.456;2024-03-07T15:46:12;14.64;42.65
22917;DHT22;11624;53.250;7.456;2024-03-07T15:48:44;14.53;43.00
22917;DHT22;11624;53.250;7.456;2024-03-07T15:51:13;14.39;43.42
22917;DHT22;11624;53.250;7.456;2024-03-07T15:53:41;14.33;43.40
22917;DHT22;11624;53.250;7.456;2024-03-07T15:56:11;14.15;43.60
22917;DHT22;11624;53.250;7.456;2024-03-07T15:58:41;14.21;43.75
22917;DHT22;11624;53.250;7.456;2024-03-07T16:01:09;14.08;43.90
22917;DHT22;11624;53.250;7.456;2024-03-07T16:03:37;13.81;43.96
22917;DHT22;11624;53.250;7.456;2024-03-07T16:06:06;13.76;44.11
22917;DHT22;11624;53.250;7.456;2024-03-07T16:08:34;13.75;44.22
22917;DHT22;11624;53.250;7.456;2024-03-07T16:11:03;13.56;44.67
22917;DHT22;11624;53.250;7.456;2024-03-07T16:13:33;13.40;45.03